Time;durP1;ratioP1;P1;durP2;ratioP2;P2;SDS_P1;SDS_P2;PMS_P1;PMS_P2;Temp;Humidity;BMP_temperature;BMP_pressure;BME280_temperature;BME280_humidity;BME280_pressure;Samples;Min_cycle;Max_cycle;Signal;HPM_P1;HPM_P2
2022/04/14 00:00:53;;;;;;;18.80;14.13;;;;;;;13.05;78.10;101961.38;5053834;28;20021;-64
2022/04/14 00:03:19;;;;;;;17.38;13.55;;;;;;;13.09;77.82;101949.06;5053725;28;20494;-64
2022/04/14 00:05:45;;;;;;;15.55;13.73;;;;;;;13.10;77.13;101951.75;5053656;28;20110;-64
2022/04/14 00:08:10;;;;;;;16.85;13.07;;;;;;;13.09;77.07;101949.97;5053288;28;20147;-63
2022/04/14 00:10:35;;;;;;;18.90;14.75;;;;;;;13.03;77.54;101945.44;5053683;28;20049;-63
2022/04/14 00:13:01;;;;;;;18.80;14.70;;;;;;;13.01;77.47;101946.28;5053531;28;20106;-64
2022/04/14 00:15:27;;;;;;;17.35;13.57;;;;;;;12.97;77.26;101945.31;5053585;28;20381;-64
2022/04/14 00:17:53;;;;;;;16.48;13.27;;;;;;;12.85;77.50;101939.81;5053493;28;20036;-64
2022/04/14 00:20:18;;;;;;;15.80;12.90;;;;;;;12.79;77.53;101939.66;5053326;28;20032;-64
2022/04/14 00:22:44;;;;;;;15.93;12.38;;;;;;;12.76;77.41;101936.94;5053310;28;20032;-64
2022/04/14 00:25:10;;;;;;;15.30;12.77;;;;;;;12.77;77.71;101933.47;5053545;28;20036;-63
2022/04/14 00:27:36;;;;;;;17.05;13.00;;;;;;;12.80;77.64;101928.19;5054045;28;20467;-63
2022/04/14 00:30:01;;;;;;;15.90;12.30;;;;;;;12.77;77.54;101930.81;5052982;28;20031;-63
2022/04/14 00:32:27;;;;;;;17.08;13.38;;;;;;;12.70;77.84;101928.88;5053425;28;20036;-62
2022/04/14 00:34:52;;;;;;;18.70;14.45;;;;;;;12.70;78.35;101931.53;5053164;28;20111;-63
2022/04/14 00:37:17;;;;;;;17.50;14.45;;;;;;;12.67;79.10;101919.09;5053114;28;20021;-62
2022/04/14 00:39:44;;;;;;;21.33;14.95;;;;;;;12.73;78.70;101928.97;5052969;28;20025;-62
2022/04/14 00:42:13;;;;;;;17.65;13.23;;;;;;;12.66;78.24;101929.69;5053136;28;20536;-62
2022/04/14 00:44:39;;;;;;;15.98;11.88;;;;;;;12.66;77.63;101929.69;5053118;28;20032;-62
2022/04/14 00:47:06;;;;;;;17.90;13.70;;;;;;;12.66;78.16;101927.94;5052997;28;20029;-62
2022/04/14 00:49:32;;;;;;;16.83;12.50;;;;;;;12.66;78.09;101925.28;5053052;28;20467;-63
2022/04/14 00:52:00;;;;;;;14.38;11.90;;;;;;;12.68;77.67;101920.91;5052853;28;20029;-63
2022/04/14 00:54:25;;;;;;;13.70;11.00;;;;;;;12.62;77.70;101923.44;5052906;28;20033;-62
2022/04/14 00:56:50;;;;;;;17.70;13.30;;;;;;;12.59;78.25;101923.41;5052975;28;20029;-63
2022/04/14 00:59:16;;;;;;;19.85;15.00;;;;;;;12.55;79.42;101929.50;5034981;28;20032;-62
2022/04/14 01:01:42;;;;;;;22.95;17.20;;;;;;;12.53;79.41;101925.91;5052952;28;20036;-63
2022/04/14 01:04:10;;;;;;;21.00;15.15;;;;;;;12.49;79.29;101929.34;5052897;28;20373;-63
2022/04/14 01:06:38;;;;;;;19.23;15.35;;;;;;;12.50;79.03;101926.75;5052698;28;20048;-63
2022/04/14 01:09:16;;;;;;;20.13;14.23;;;;;;;12.50;79.43;101929.41;5052753;28;20044;-63
2022/04/14 01:11:44;;;;;;;18.90;14.82;;;;;;;12.47;79.36;101921.38;5052975;28;20071;-62
2022/04/14 01:14:19;;;;;;;19.17;14.75;;;;;;;12.45;79.12;101924.84;5052801;28;20040;-62
2022/04/14 01:16:45;;;;;;;15.75;12.90;;;;;;;12.45;79.06;101924.84;5052823;28;20025;-62
2022/04/14 01:19:10;;;;;;;19.08;15.05;;;;;;;12.44;79.01;101923.97;5053026;28;20406;-63
2022/04/14 01:21:39;;;;;;;15.77;12.68;;;;;;;12.37;78.21;101927.34;5052631;28;20029;-63
2022/04/14 01:24:05;;;;;;;16.08;13.60;;;;;;;12.33;79.23;101927.25;5052782;28;20086;-63
2022/04/14 01:26:30;;;;;;;20.58;16.13;;;;;;;12.31;79.83;101919.28;5052802;28;20017;-62
2022/04/14 01:28:56;;;;;;;20.98;15.65;;;;;;;12.36;79.50;101917.59;5052582;28;20458;-62
2022/04/14 01:31:22;;;;;;;23.70;18.08;;;;;;;12.39;80.08;101920.34;5052613;28;20027;-62
2022/04/14 01:33:47;;;;;;;22.73;16.83;;;;;;;12.45;78.99;101920.44;5052641;28;20032;-63
2022/04/14 01:36:12;;;;;;;20.73;16.58;;;;;;;12.46;79.14;101916.03;5052973;28;20094;-62
2022/04/14 01:38:38;;;;;;;21.40;16.85;;;;;;;12.47;79.24;101926.69;5052435;28;20440;-62
2022/04/14 01:41:03;;;;;;;23.55;18.88;;;;;;;12.48;79.84;101930.22;5052722;28;20104;-63
2022/04/14 01:43:29;;;;;;;22.55;16.65;;;;;;;12.49;78.92;101930.25;5055411;28;20025;-62
2022/04/14 01:45:54;;;;;;;27.15;19.52;;;;;;;12.47;80.06;101926.69;5056540;28;20549;-62
2022/04/14 01:48:19;;;;;;;25.75;18.15;;;;;;;12.42;79.45;101917.75;5056296;28;20459;-63
2022/04/14 01:50:45;;;;;;;25.42;20.05;;;;;;;12.38;80.67;101922.97;5056236;28;20086;-63
2022/04/14 01:53:10;;;;;;;24.70;19.67;;;;;;;12.33;80.87;101914.88;5056197;28;20083;-62
2022/04/14 01:55:35;;;;;;;28.05;21.00;;;;;;;12.29;81.35;101928.97;5056191;28;20025;-63
2022/04/14 01:58:01;;;;;;;26.42;20.17;;;;;;;12.26;81.33;101927.13;5056337;28;20497;-63
2022/04/14 02:00:26;;;;;;;28.08;20.23;;;;;;;12.25;81.07;101933.31;5056031;28;20025;-62
2022/04/14 02:02:51;;;;;;;27.38;18.83;;;;;;;12.18;80.97;101915.47;5056088;28;20025;-63
2022/04/14 02:05:17;;;;;;;28.50;20.75;;;;;;;12.34;80.95;101934.34;5055983;28;20107;-62
2022/04/14 02:07:42;;;;;;;26.98;19.55;;;;;;;12.39;80.24;101940.66;5055674;28;20037;-63
2022/04/14 02:10:08;;;;;;;21.65;16.00;;;;;;;12.37;78.48;101937.94;5055844;28;20032;-63
2022/04/14 02:12:34;;;;;;;26.02;18.27;;;;;;;12.38;79.66;101934.44;5055686;28;20065;-63
2022/04/14 02:15:00;;;;;;;21.55;17.00;;;;;;;12.37;78.76;101935.28;5055752;28;20029;-63
2022/04/14 02:17:25;;;;;;;26.10;16.65;;;;;;;12.35;78.29;101942.34;5055865;28;20039;-62
2022/04/14 02:19:51;;;;;;;22.77;17.38;;;;;;;12.31;79.10;101939.59;5055765;28;20107;-63
2022/04/14 02:22:16;;;;;;;26.38;18.75;;;;;;;12.29;79.89;101944.88;5055612;28;20082;-62
2022/04/14 02:24:42;;;;;;;28.75;19.92;;;;;;;12.26;80.32;101932.44;5055544;28;20056;-63
2022/04/14 02:27:07;;;;;;;24.38;18.38;;;;;;;12.27;79.29;101943.91;5055815;28;20071;-62
2022/04/14 02:29:32;;;;;;;26.38;20.00;;;;;;;12.26;79.79;101940.38;5055452;28;20029;-62
2022/04/14 02:31:58;;;;;;;23.55;18.73;;;;;;;12.30;79.45;101944.00;5055619;28;20033;-63
2022/04/14 02:34:26;;;;;;;30.00;20.95;;;;;;;12.30;80.80;101945.75;5055481;28;20102;-62
2022/04/14 02:36:51;;;;;;;32.15;22.13;;;;;;;12.28;80.54;101949.25;5055427;28;20055;-62
2022/04/14 02:39:17;;;;;;;30.17;21.70;;;;;;;12.33;80.52;101949.34;5055385;28;20096;-62
2022/04/14 02:41:42;;;;;;;18.52;15.30;;;;;;;12.33;78.76;101954.63;5055307;28;20478;-62
2022/04/14 02:44:07;;;;;;;27.13;18.35;;;;;;;12.34;79.04;101947.63;5055165;28;20023;-62
2022/04/14 02:46:33;;;;;;;26.33;20.48;;;;;;;12.32;80.29;101952.84;5055216;28;20033;-63
2022/04/14 02:48:58;;;;;;;32.35;21.42;;;;;;;12.35;80.91;101952.94;5055077;28;20116;-62
2022/04/14 02:51:24;;;;;;;25.00;18.40;;;;;;;12.31;79.79;101947.53;5055176;28;20021;-63
2022/04/14 02:53:49;;;;;;;29.13;20.08;;;;;;;12.28;79.70;101956.31;5054603;28;20032;-62
2022/04/14 02:56:14;;;;;;;26.85;19.55;;;;;;;12.26;79.76;101952.75;5054976;28;20063;-62
2022/04/14 02:58:39;;;;;;;34.05;22.63;;;;;;;12.23;80.86;101944.72;5054985;28;20481;-63
2022/04/14 03:01:05;;;;;;;33.25;23.50;;;;;;;12.19;81.75;101941.09;5054939;28;20480;-63
2022/04/14 03:03:30;;;;;;;25.75;17.70;;;;;;;12.13;80.78;101940.09;5054929;28;20031;-63
2022/04/14 03:05:55;;;;;;;28.92;19.33;;;;;;;12.13;80.02;101942.75;5054889;28;20103;-62
2022/04/14 03:08:21;;;;;;;27.25;19.85;;;;;;;12.16;79.81;101942.78;5054630;28;20047;-62
2022/04/14 03:10:46;;;;;;;24.88;18.45;;;;;;;12.16;79.50;101946.34;5054988;28;20021;-63
2022/04/14 03:13:12;;;;;;;25.33;17.70;;;;;;;12.14;78.81;101945.41;5054618;28;20459;-63
2022/04/14 03:15:37;;;;;;;30.70;18.25;;;;;;;12.03;79.58;101942.53;5054846;28;20060;-62
2022/04/14 03:18:03;;;;;;;26.13;17.42;;;;;;;11.94;79.34;101947.59;5054680;28;20053;-62
2022/04/14 03:20:29;;;;;;;26.85;15.10;;;;;;;11.92;79.46;101945.81;5054517;28;20021;-62
2022/04/14 03:22:57;;;;;;;21.73;14.65;;;;;;;11.89;78.76;101948.38;5054435;28;20543;-62
2022/04/14 03:25:23;;;;;;;32.20;17.75;;;;;;;11.92;79.69;101948.44;5054375;28;20393;-63
2022/04/14 03:27:48;;;;;;;40.45;19.00;;;;;;;11.96;80.83;101945.91;5054280;28;20032;-63
2022/04/14 03:30:14;;;;;;;27.23;17.73;;;;;;;11.95;79.23;101956.47;5054464;28;20029;-63
2022/04/14 03:32:44;;;;;;;35.42;17.73;;;;;;;11.94;79.09;101952.00;5054204;28;20106;-62
2022/04/14 03:35:11;;;;;;;106.70;16.70;;;;;;;11.79;79.46;101953.41;5054423;28;20474;-62
2022/04/14 03:37:37;;;;;;;59.15;18.08;;;;;;;11.71;79.19;101959.41;5054604;28;20508;-62
2022/04/14 03:40:04;;;;;;;35.63;15.93;;;;;;;11.66;78.86;101963.69;5054787;28;20538;-62
2022/04/14 03:42:30;;;;;;;45.05;15.20;;;;;;;11.59;79.15;101962.63;5056723;28;20051;-62
2022/04/14 03:44:55;;;;;;;63.55;14.30;;;;;;;11.52;79.50;101961.59;5057650;28;20021;-62
2022/04/14 03:47:20;;;;;;;42.45;13.18;;;;;;;11.46;79.40;101958.78;5055601;28;20025;-62
2022/04/14 03:49:46;;;;;;;41.00;14.00;;;;;;;11.42;79.21;101956.03;5054487;28;20021;-62
2022/04/14 03:52:17;;;;;;;25.45;13.57;;;;;;;11.45;79.64;101961.41;5054141;28;20025;-62
2022/04/14 03:54:43;;;;;;;14.68;11.95;;;;;;;11.54;78.87;101958.97;5054674;28;20340;-62
2022/04/14 03:57:08;;;;;;;30.42;12.32;;;;;;;11.58;78.64;101950.25;5053669;28;20028;-62
2022/04/14 03:59:33;;;;;;;36.72;12.13;;;;;;;11.59;77.86;101948.50;5053768;28;20537;-62
2022/04/14 04:01:59;;;;;;;36.85;13.65;;;;;;;11.60;79.03;101951.19;5053716;28;20029;-62
2022/04/14 04:04:24;;;;;;;64.15;13.77;;;;;;;11.52;78.50;101948.38;5053210;28;20105;-62
2022/04/14 04:06:49;;;;;;;31.80;12.95;;;;;;;11.45;77.48;101948.19;5053309;28;20478;-63
2022/04/14 04:09:16;;;;;;;23.02;14.18;;;;;;;11.38;79.14;101946.22;5053570;28;20429;-62
2022/04/14 04:11:41;;;;;;;21.33;11.90;;;;;;;11.39;79.12;101956.88;5053354;28;20078;-63
2022/04/14 04:14:07;;;;;;;16.15;11.88;;;;;;;11.34;77.89;101958.47;5053490;28;20396;-62
2022/04/14 04:16:32;;;;;;;14.32;11.10;;;;;;;11.32;77.56;101965.50;5053608;28;20020;-63
2022/04/14 04:18:58;;;;;;;20.90;15.80;;;;;;;11.33;78.98;101967.28;5053570;28;20055;-63
2022/04/14 04:21:25;;;;;;;21.08;15.20;;;;;;;11.37;79.40;101965.59;5053375;28;20017;-62
2022/04/14 04:23:50;;;;;;;24.38;17.65;;;;;;;11.38;79.16;101970.03;5053399;28;20120;-62
2022/04/14 04:26:16;;;;;;;22.70;16.20;;;;;;;11.32;79.31;101964.59;5053330;28;20052;-62
2022/04/14 04:28:41;;;;;;;21.60;16.52;;;;;;;11.36;79.29;101977.06;5053276;28;20024;-62
2022/04/14 04:31:06;;;;;;;22.73;16.58;;;;;;;11.28;78.50;101976.84;5053183;28;20439;-62
2022/04/14 04:33:31;;;;;;;29.38;13.73;;;;;;;11.25;78.83;101974.13;5053274;28;20537;-62
2022/04/14 04:35:57;;;;;;;55.72;21.10;;;;;;;11.23;82.03;101978.50;5053275;28;20020;-62
2022/04/14 04:38:22;;;;;;;110.40;22.70;;;;;;;11.25;82.53;101979.41;5053231;28;20021;-63
2022/04/14 04:40:47;;;;;;;63.05;21.65;;;;;;;11.27;82.74;101975.06;5053091;28;20445;-62
2022/04/14 04:43:15;;;;;;;154.63;23.77;;;;;;;11.26;83.47;101987.41;5053058;28;20025;-62
2022/04/14 04:45:44;;;;;;;249.25;24.75;;;;;;;11.22;83.84;101981.97;5053040;28;20477;-62
2022/04/14 04:48:10;;;;;;;104.93;22.08;;;;;;;11.21;84.08;101988.13;5053331;28;20112;-62
2022/04/14 04:50:35;;;;;;;153.10;23.63;;;;;;;11.21;84.58;101988.13;5052923;28;20064;-63
2022/04/14 04:53:01;;;;;;;143.30;24.80;;;;;;;11.20;85.12;101991.63;5052896;28;20028;-63
2022/04/14 04:55:26;;;;;;;121.78;24.13;;;;;;;11.17;84.96;101992.44;5052826;28;20044;-62
2022/04/14 04:57:51;;;;;;;116.63;24.58;;;;;;;11.11;86.16;101989.63;5052520;28;20025;-63
2022/04/14 05:00:16;;;;;;;102.93;24.85;;;;;;;11.13;85.82;101994.94;5052247;28;20025;-62
2022/04/14 05:02:42;;;;;;;158.88;25.75;;;;;;;11.15;86.04;102001.19;5052762;28;20052;-62
2022/04/14 05:05:08;;;;;;;128.88;25.67;;;;;;;11.07;85.93;101994.81;5052337;28;20040;-63
2022/04/14 05:07:33;;;;;;;212.68;25.73;;;;;;;11.04;86.72;101998.25;5052166;28;20053;-62
2022/04/14 05:09:59;;;;;;;75.50;26.10;;;;;;;10.98;86.32;101992.81;5052447;28;20086;-62
2022/04/14 05:12:24;;;;;;;148.93;26.73;;;;;;;10.99;86.84;101998.13;5052477;28;20033;-62
2022/04/14 05:14:49;;;;;;;71.03;25.20;;;;;;;10.99;86.63;101997.22;5052420;28;20025;-63
2022/04/14 05:17:15;;;;;;;67.88;24.08;;;;;;;11.04;85.96;101996.50;5054818;28;20030;-62
2022/04/14 05:19:40;;;;;;;54.25;24.33;;;;;;;11.12;85.91;102006.41;5056341;28;20104;-63
2022/04/14 05:22:05;;;;;;;86.32;24.13;;;;;;;11.17;85.78;102004.75;5056177;28;20037;-62
2022/04/14 05:24:32;;;;;;;63.72;25.60;;;;;;;11.23;85.77;102005.84;5056002;28;20056;-62
2022/04/14 05:26:57;;;;;;;65.22;22.90;;;;;;;11.26;85.06;102010.28;5056169;28;20033;-62
2022/04/14 05:29:23;;;;;;;94.80;23.92;;;;;;;11.24;85.40;102004.97;5056128;28;20031;-63
2022/04/14 05:31:48;;;;;;;68.45;24.80;;;;;;;11.28;84.89;102009.50;5055742;28;20393;-62
2022/04/14 05:34:13;;;;;;;82.97;24.83;;;;;;;11.24;84.90;101997.03;5056044;28;20036;-63
2022/04/14 05:36:39;;;;;;;52.33;22.83;;;;;;;11.38;84.66;102017.69;5055896;28;20028;-63
2022/04/14 05:39:04;;;;;;;157.50;23.20;;;;;;;11.35;84.49;102023.81;5055715;28;20028;-63
2022/04/14 05:41:29;;;;;;;56.55;22.35;;;;;;;11.41;84.19;102029.25;5055878;28;20024;-63
2022/04/14 05:43:56;;;;;;;56.75;20.17;;;;;;;11.47;83.94;102031.13;5055739;28;20029;-62
2022/04/14 05:46:22;;;;;;;150.50;22.23;;;;;;;11.48;83.62;102031.19;5055593;28;20033;-62
2022/04/14 05:48:48;;;;;;;118.80;23.83;;;;;;;11.46;84.33;102032.00;5055513;28;20124;-62
2022/04/14 05:51:14;;;;;;;107.25;22.63;;;;;;;11.50;84.25;102039.16;5055628;28;20067;-63
2022/04/14 05:53:40;;;;;;;126.85;23.33;;;;;;;11.56;84.47;102043.72;5055271;28;20028;-63
2022/04/14 05:56:05;;;;;;;82.85;22.35;;;;;;;11.58;84.22;102040.28;5055575;28;20021;-63
2022/04/14 05:58:31;;;;;;;108.55;21.55;;;;;;;11.58;84.04;102029.69;5055425;28;20037;-62
2022/04/14 06:00:56;;;;;;;81.75;22.58;;;;;;;11.59;83.78;102039.41;5055310;28;20111;-63
2022/04/14 06:03:21;;;;;;;71.90;20.83;;;;;;;11.53;83.88;102036.63;5055428;28;20535;-63
2022/04/14 06:05:47;;;;;;;59.67;20.25;;;;;;;11.58;84.21;102042.91;5055447;28;20523;-62
2022/04/14 06:08:12;;;;;;;40.60;21.92;;;;;;;11.64;84.26;102044.81;5037220;28;20049;-63
2022/04/14 06:10:38;;;;;;;36.17;21.52;;;;;;;11.67;84.03;102045.78;5055290;28;20064;-62
2022/04/14 06:13:04;;;;;;;33.53;21.45;;;;;;;11.74;84.16;102038.91;5055277;28;20029;-63
2022/04/14 06:15:31;;;;;;;38.85;22.30;;;;;;;11.85;84.73;102040.09;5055048;28;20052;-63
2022/04/14 06:17:57;;;;;;;46.50;21.25;;;;;;;11.91;83.60;102045.56;5055084;28;20033;-62
2022/04/14 06:20:22;;;;;;;30.75;22.40;;;;;;;12.02;83.73;102044.03;5055134;28;20045;-62
2022/04/14 06:22:48;;;;;;;32.22;22.23;;;;;;;12.12;83.20;102041.59;5055136;28;20565;-63
2022/04/14 06:25:16;;;;;;;29.00;22.90;;;;;;;12.29;83.11;102042.94;5055356;28;20071;-62
2022/04/14 06:27:43;;;;;;;31.88;22.02;;;;;;;12.46;83.19;102046.84;5053795;28;20032;-62
2022/04/14 06:30:10;;;;;;;28.90;21.98;;;;;;;12.60;82.61;102039.19;5054389;28;20025;-62
2022/04/14 06:32:36;;;;;;;31.73;21.38;;;;;;;12.84;82.66;102040.56;5036871;28;20039;-63
2022/04/14 06:35:04;;;;;;;27.40;22.15;;;;;;;13.00;82.17;102047.97;5054405;28;20106;-62
2022/04/14 06:37:29;;;;;;;29.23;21.52;;;;;;;13.25;81.47;102046.72;5054058;28;20499;-62
2022/04/14 06:39:54;;;;;;;28.15;20.90;;;;;;;13.41;80.68;102045.25;5054880;28;20021;-62
2022/04/14 06:42:22;;;;;;;31.92;21.88;;;;;;;13.60;79.48;102051.78;5054608;28;20025;-62
2022/04/14 06:44:48;;;;;;;32.75;21.83;;;;;;;13.65;78.69;102048.34;5054717;28;20029;-62
2022/04/14 06:47:13;;;;;;;31.35;22.15;;;;;;;13.81;79.73;102033.56;5054263;28;20021;-62
2022/04/14 06:49:39;;;;;;;28.13;21.70;;;;;;;13.95;79.20;102039.09;5054603;28;20021;-63
2022/04/14 06:52:04;;;;;;;27.02;20.35;;;;;;;14.14;78.45;102048.25;5054484;28;20524;-63
2022/04/14 06:54:30;;;;;;;26.92;20.13;;;;;;;14.34;78.73;102045.88;5054377;28;20029;-62
2022/04/14 06:56:55;;;;;;;25.77;19.85;;;;;;;14.55;78.08;102040.91;5054408;28;20029;-62
2022/04/14 06:59:20;;;;;;;29.27;18.73;;;;;;;14.80;76.90;102052.75;5054228;28;20040;-62
2022/04/14 07:01:46;;;;;;;25.63;17.95;;;;;;;15.05;75.37;102058.38;5054103;28;20097;-63
2022/04/14 07:04:11;;;;;;;25.90;18.00;;;;;;;15.25;74.67;102048.88;5054097;28;20029;-62
2022/04/14 07:06:36;;;;;;;25.02;18.88;;;;;;;15.40;74.31;102045.44;5054347;28;20036;-62
2022/04/14 07:09:02;;;;;;;22.85;17.48;;;;;;;15.54;73.34;102046.47;5054006;28;20052;-62
2022/04/14 07:11:28;;;;;;;24.33;17.02;;;;;;;15.74;73.00;102047.59;5054135;28;20067;-62
2022/04/14 07:13:53;;;;;;;23.83;16.33;;;;;;;15.89;71.57;102052.16;5054134;28;20033;-62
2022/04/14 07:16:18;;;;;;;19.90;14.98;;;;;;;16.10;70.37;102047.84;5054038;28;20052;-62
2022/04/14 07:18:44;;;;;;;24.70;15.23;;;;;;;16.14;69.71;102037.22;5053845;28;20032;-62
2022/04/14 07:21:10;;;;;;;24.25;14.57;;;;;;;16.34;70.08;102047.16;5054278;28;20100;-62
2022/04/14 07:23:36;;;;;;;21.23;14.38;;;;;;;16.55;68.87;102043.72;5053962;28;20029;-63
2022/04/14 07:26:01;;;;;;;21.83;13.90;;;;;;;16.70;67.83;102042.03;5053837;28;20021;-62
2022/04/14 07:28:26;;;;;;;19.25;13.80;;;;;;;16.87;67.99;102051.88;5054221;28;20480;-63
2022/04/14 07:30:51;;;;;;;21.25;13.88;;;;;;;17.08;66.02;102051.06;5053727;28;20017;-62
2022/04/14 07:33:17;;;;;;;19.05;13.75;;;;;;;17.25;66.16;102057.34;5053705;28;20111;-63
2022/04/14 07:35:42;;;;;;;17.95;13.07;;;;;;;17.44;65.12;102058.31;5053622;28;20127;-62
2022/04/14 07:38:08;;;;;;;17.42;13.30;;;;;;;17.64;63.35;102059.22;5053638;28;20045;-62
2022/04/14 07:40:33;;;;;;;21.63;13.68;;;;;;;17.80;63.97;102046.78;5053924;28;20036;-62
2022/04/14 07:42:58;;;;;;;20.73;13.30;;;;;;;18.00;62.65;102062.84;5053594;28;20047;-62
2022/04/14 07:45:24;;;;;;;18.30;12.25;;;;;;;18.16;61.38;102061.94;5053661;28;20065;-62
2022/04/14 07:47:49;;;;;;;18.92;12.95;;;;;;;18.39;60.73;102067.25;5053486;28;20049;-63
2022/04/14 07:50:19;;;;;;;18.05;12.85;;;;;;;18.66;59.73;102065.38;5053428;28;20020;-62
2022/04/14 07:52:49;;;;;;;19.02;12.93;;;;;;;18.88;59.54;102064.44;5053267;28;20110;-61
2022/04/14 07:55:19;;;;;;;17.60;13.07;;;;;;;18.99;58.04;102065.28;5053567;28;20025;-62
2022/04/14 07:57:44;;;;;;;17.60;11.95;;;;;;;19.14;58.06;102061.66;5053145;28;20343;-62
2022/04/14 08:00:10;;;;;;;18.50;11.80;;;;;;;19.51;57.03;102065.00;5053361;28;20108;-62
2022/04/14 08:02:45;;;;;;;18.95;12.30;;;;;;;19.50;57.21;102065.00;5053499;28;20039;-62
2022/04/14 08:05:10;;;;;;;16.00;10.48;;;;;;;19.51;54.66;102070.34;5053130;28;20108;-62
2022/04/14 08:07:36;;;;;;;15.88;10.73;;;;;;;19.67;54.85;102072.97;5053072;28;20085;-61
2022/04/14 08:10:01;;;;;;;16.13;11.90;;;;;;;19.76;54.75;102064.84;5053247;28;20037;-62
2022/04/14 08:12:27;;;;;;;18.80;11.93;;;;;;;20.02;54.23;102068.19;5053035;28;20033;-62
2022/04/14 08:14:52;;;;;;;18.88;12.38;;;;;;;20.14;53.91;102071.69;5053004;28;20066;-62
2022/04/14 08:17:17;;;;;;;16.80;12.73;;;;;;;20.09;53.64;102073.53;5053068;28;20048;-62
2022/04/14 08:19:42;;;;;;;14.40;10.55;;;;;;;20.35;52.13;102073.28;5052739;28;20049;-62
2022/04/14 08:22:08;;;;;;;17.15;10.63;;;;;;;20.58;52.09;102068.56;5053093;28;20033;-62
2022/04/14 08:24:34;;;;;;;14.00;10.77;;;;;;;20.55;52.64;102059.66;5052718;28;20055;-62
2022/04/14 08:26:59;;;;;;;13.43;9.23;;;;;;;20.83;50.86;102063.81;5053000;28;20024;-61
2022/04/14 08:29:25;;;;;;;13.98;9.80;;;;;;;20.98;48.95;102058.25;5052987;28;20032;-62
2022/04/14 08:31:50;;;;;;;14.48;9.65;;;;;;;20.96;49.72;102067.22;5052665;28;20025;-62
2022/04/14 08:34:15;;;;;;;14.02;9.68;;;;;;;21.02;48.57;102068.03;5052643;28;20021;-62
2022/04/14 08:36:41;;;;;;;12.32;9.05;;;;;;;21.12;48.23;102060.75;5052811;28;20025;-61
2022/04/14 08:39:06;;;;;;;11.43;7.90;;;;;;;21.39;47.33;102058.59;5052758;28;20025;-62
2022/04/14 08:41:36;;;;;;;13.45;8.18;;;;;;;21.23;47.47;102064.16;5052445;28;20394;-62
2022/04/14 08:44:04;;;;;;;14.23;9.25;;;;;;;21.40;47.06;102063.94;5052521;28;20116;-62
2022/04/14 08:46:30;;;;;;;14.43;9.02;;;;;;;21.53;47.41;102058.38;5052397;28;20036;-62
2022/04/14 08:48:57;;;;;;;11.15;7.93;;;;;;;21.53;46.61;102047.63;5052618;28;20025;-63
2022/04/14 08:51:25;;;;;;;9.98;7.50;;;;;;;21.62;46.42;102061.81;5052759;28;20100;-61
2022/04/14 08:53:52;;;;;;;14.43;8.50;;;;;;;21.83;45.81;102057.91;5052612;28;20028;-62
2022/04/14 08:56:19;;;;;;;14.00;8.93;;;;;;;22.03;45.30;102054.88;5052606;28;20021;-62
2022/04/14 08:58:45;;;;;;;12.75;8.20;;;;;;;21.90;44.94;102062.28;5052493;28;20063;-63
2022/04/14 09:01:13;;;;;;;11.07;8.10;;;;;;;22.31;44.63;102066.09;5052564;28;20029;-63
2022/04/14 09:03:38;;;;;;;13.98;8.45;;;;;;;22.18;44.76;102057.34;5052268;28;20064;-62
2022/04/14 09:06:04;;;;;;;13.98;7.82;;;;;;;22.42;43.94;102063.16;5034551;28;20112;-61
2022/04/14 09:08:29;;;;;;;13.63;8.40;;;;;;;22.35;45.04;102057.00;5052017;28;20363;-62
2022/04/14 09:10:54;;;;;;;11.98;8.35;;;;;;;22.59;43.49;102058.34;5052399;28;20048;-62
2022/04/14 09:13:20;;;;;;;14.82;7.88;;;;;;;22.70;43.08;102059.03;5052620;28;20032;-62
2022/04/14 09:15:49;;;;;;;11.68;7.82;;;;;;;22.79;43.99;102065.16;5052320;28;20021;-63
2022/04/14 09:18:14;;;;;;;11.27;7.97;;;;;;;22.91;42.63;102059.50;5052274;28;20489;-63
2022/04/14 09:20:42;;;;;;;11.98;7.45;;;;;;;22.87;42.35;102049.69;5034045;28;20079;-63
2022/04/14 09:23:13;;;;;;;13.75;7.63;;;;;;;23.09;43.37;102045.66;5052153;28;20077;-62
2022/04/14 09:25:40;;;;;;;10.25;7.20;;;;;;;23.21;42.07;102044.47;5052053;28;20119;-62
2022/04/14 09:28:12;;;;;;;12.38;7.07;;;;;;;23.27;42.08;102043.47;5052519;28;20021;-62
2022/04/14 09:30:38;;;;;;;10.07;6.57;;;;;;;23.42;41.42;102046.66;5052133;28;20033;-62
2022/04/14 09:33:04;;;;;;;10.43;6.72;;;;;;;23.32;41.34;102038.84;5052017;28;20021;-62
2022/04/14 09:35:31;;;;;;;7.70;5.20;;;;;;;23.80;39.17;102036.78;5051969;28;20033;-62
2022/04/14 09:38:02;;;;;;;9.95;5.60;;;;;;;24.09;38.64;102041.44;5034284;28;20115;-62
2022/04/14 09:40:34;;;;;;;8.77;5.40;;;;;;;24.16;38.55;102034.97;5052084;28;20107;-62
2022/04/14 09:43:00;;;;;;;9.48;5.90;;;;;;;24.40;37.46;102035.22;5034220;28;20497;-62
2022/04/14 09:45:28;;;;;;;8.52;5.25;;;;;;;24.46;37.75;102025.16;5051886;28;20101;-62
2022/04/14 09:47:55;;;;;;;7.65;5.22;;;;;;;24.70;37.74;102019.94;5051765;28;20025;-63
2022/04/14 09:50:36;;;;;;;7.65;5.50;;;;;;;24.96;38.51;102025.47;5051928;28;20036;-62
2022/04/14 09:53:15;;;;;;;9.55;6.20;;;;;;;24.90;36.87;102024.78;5051135;28;20485;-63
2022/04/14 09:55:49;;;;;;;9.93;5.90;;;;;;;24.82;38.25;102021.41;5051890;28;20499;-62
2022/04/14 09:58:17;;;;;;;10.52;5.53;;;;;;;25.05;36.51;102018.00;5051587;28;20033;-62
2022/04/14 10:00:51;;;;;;;9.68;5.30;;;;;;;25.07;37.41;102017.03;5052155;28;20052;-62
2022/04/14 10:03:19;;;;;;;8.18;5.82;;;;;;;24.94;36.37;102019.22;5052768;28;20037;-62
2022/04/14 10:05:45;;;;;;;6.80;4.60;;;;;;;24.98;35.23;102011.91;5055422;28;20029;-62
2022/04/14 10:08:13;;;;;;;6.88;4.47;;;;;;;25.10;33.50;102007.97;5055064;28;20053;-62
2022/04/14 10:10:41;;;;;;;5.95;3.25;;;;;;;25.42;34.03;102015.06;5055408;28;20025;-62
2022/04/14 10:13:11;;;;;;;6.88;3.40;;;;;;;25.56;32.81;102011.88;5055077;28;20037;-62
2022/04/14 10:15:41;;;;;;;5.72;3.00;;;;;;;25.66;31.03;102010.66;5055593;28;20032;-62
2022/04/14 10:18:09;;;;;;;6.45;3.17;;;;;;;26.00;31.36;102028.50;5055229;28;20112;-62
2022/04/14 10:20:37;;;;;;;6.55;3.03;;;;;;;26.16;31.62;102029.69;5055192;28;20017;-62
2022/04/14 10:23:03;;;;;;;4.60;3.00;;;;;;;26.09;30.91;102031.75;5037225;28;20425;-62
2022/04/14 10:25:30;;;;;;;8.32;3.65;;;;;;;26.04;31.91;102033.75;5055027;28;20450;-62
2022/04/14 10:27:59;;;;;;;8.27;4.10;;;;;;;26.31;31.18;102042.72;5055035;28;20025;-60
2022/04/14 10:30:26;;;;;;;5.78;3.70;;;;;;;26.41;29.51;102049.56;5055215;28;20146;-60
2022/04/14 10:32:56;;;;;;;6.03;3.33;;;;;;;26.37;30.22;102039.78;5055257;28;20029;-60
2022/04/14 10:35:23;;;;;;;5.45;3.10;;;;;;;26.41;29.77;102041.44;5054959;28;20033;-60
2022/04/14 10:38:13;;;;;;;6.60;3.53;;;;;;;26.18;31.88;102036.84;5054997;28;20398;-60
2022/04/14 10:40:47;;;;;;;6.63;3.22;;;;;;;26.05;31.26;102049.06;5054832;28;20028;-61
2022/04/14 10:43:14;;;;;;;4.05;2.45;;;;;;;26.18;29.79;102052.22;5054900;28;20029;-60
2022/04/14 10:45:54;;;;;;;4.10;2.30;;;;;;;26.26;31.24;102060.97;5054496;28;20505;-62
2022/04/14 10:48:34;;;;;;;6.32;2.10;;;;;;;26.33;31.20;102053.50;5055165;28;20052;-62
2022/04/14 10:51:24;;;;;;;4.57;2.10;;;;;;;26.47;31.58;102048.50;5054426;28;20463;-62
2022/04/14 10:54:05;;;;;;;4.03;2.38;;;;;;;26.59;30.29;102045.31;5042669;28;20032;-61
2022/04/14 10:56:33;;;;;;;4.80;2.50;;;;;;;26.31;30.12;102047.25;5054435;28;20063;-61
2022/04/14 10:59:06;;;;;;;5.38;2.40;;;;;;;26.46;29.09;102044.00;5054525;28;20024;-61
2022/04/14 11:01:47;;;;;;;4.55;2.60;;;;;;;26.44;28.86;102040.47;5054534;28;20029;-61
2022/04/14 11:04:24;;;;;;;5.70;2.50;;;;;;;26.49;30.66;102034.88;5054562;28;20090;-61
2022/04/14 11:06:51;;;;;;;4.03;2.67;;;;;;;26.88;29.27;102041.50;5053990;28;20029;-60
2022/04/14 11:09:39;;;;;;;5.00;3.30;;;;;;;27.09;30.35;102037.13;5036375;28;20029;-60